Albany, OK

7:48 PM CDT on September 17, 2014 (GMT -0500)
Duplex, Texas | Change Station
CLOSE
Current Station
Personal Weather Station
Location: Ivanhoe, TX
Elevation: 617 ft
Nearby Weather Stations

Elev 617 ft 33.77 °N, 96.13 °W | Updated 0 second ago

Partly Cloudy
Partly Cloudy
80.9 °F
Feels Like 85 °F
N
0.0
Wind Variable Wind from South
Gusts 0.0 mph

Today
High -- | Low -- °F
--% Chance of Precip.
Yesterday
High -- | Low -- °F
Precip. -- in
7:09 AM 7:28 PM
Waning Crescent, 32% visible
Pressure 29.89 in
Visibility 10.0 miles
Clouds Clear
Heat Index 85 °F
Dew Point 72 °F
Humidity 74%
Rainfall 0.00 in
Snow Depth Not available.
UV 0.0 out of 12
Pollen 10.60 out of 12
Air Quality Not available.
Flu Activity Not available.
METAR KDUA 180035Z AUTO 13004KT 10SM CLR 28/22 A2989 RMK AO2

More Conditions Fewer Conditions

Pressure 29.89 in
Visibility 10.0 miles
Clouds Clear
Heat Index 85 °F
Dew Point 72 °F
Humidity 74%
Rainfall 0.00 in
Snow Depth Not available.
UV 0.0 out of 12
Pollen 10.60 out of 12
Air Quality Not available.
Flu Activity Not available.
METAR KDUA 180035Z AUTO 13004KT 10SM CLR 28/22 A2989 RMK AO2

More Conditions Fewer Conditions

10-Day Weather Forecast

Almanac

Astronomy

Sep. 17, 2014 Rise Set
Actual Time 7:09 AM CDT 7:28 PM CDT
Civil Twilight 6:44 AM CDT 7:53 PM CDT
Nautical Twilight 6:15 AM CDT 8:22 PM CDT
Astronomical Twilight 5:45 AM CDT 8:52 PM CDT
Moon 1:21 AM CDT (9/17) 3:27 PM CDT (9/17)
Length of Visible Light 13h 08m
Length of Day
12h 19m
Tomorrow will be 2m 6s shorter.
Waning Crescent, 32% of the Moon is Illuminated
Today
Waning Crescent
Sep 24
New
Oct 1
First Quarter
Oct 8
Full
Oct 15
Last Quarter

Today's Extremes

State Highs State Lows

Community

WunderPhotos

Upload Photos

1,754,224 photos uploaded!

Nearby

Snow Depth

Station Depth Elevation
No new snow has been reported.

Earthquake Activity

City Distance Mag. Time & Date
Guthrie, Oklahoma 152 miles 2.5 11:33 AM CDT
2014-09-17
Guthrie, Oklahoma 152 miles 2.7 4:00 PM CDT
2014-09-15
Guthrie, Oklahoma 152 miles 2.6 3:29 PM CDT
2014-09-15
Guthrie, Oklahoma 151 miles 3.2 3:14 PM CDT
2014-09-15
Minimum magnitude displayed is 2.5.

Coastal Water Temperatures

Place Temperature
No Stations Reporting

Nearby Weather Stations